Time;durP1;ratioP1;P1;durP2;ratioP2;P2;SDS_P1;SDS_P2;PMS_P1;PMS_P2;Temp;Humidity;BMP_temperature;BMP_pressure;BME280_temperature;BME280_humidity;BME280_pressure;Samples;Min_cycle;Max_cycle;Signal;HPM_P1;HPM_P2
2022/05/17 00:01:42;;;;;;;3.23;2.07;;;18.50;58.70;;;;;;4927775;29;20736;-62
2022/05/17 00:04:08;;;;;;;3.97;2.30;;;18.50;58.20;;;;;;4920338;29;20209;-63
2022/05/17 00:06:34;;;;;;;2.60;2.27;;;18.50;59.30;;;;;;4928298;29;20676;-63
2022/05/17 00:09:00;;;;;;;5.30;2.13;;;18.50;56.80;;;;;;4925702;29;20248;-62
2022/05/17 00:11:26;;;;;;;2.93;2.20;;;18.50;59.40;;;;;;4926683;29;20668;-61
2022/05/17 00:13:52;;;;;;;2.53;2.30;;;18.50;59.10;;;;;;4926028;29;20213;-63
2022/05/17 00:16:18;;;;;;;3.23;2.30;;;18.50;58.90;;;;;;4926016;29;20180;-62
2022/05/17 00:18:43;;;;;;;3.00;2.00;;;18.50;57.40;;;;;;4926299;29;20241;-61
2022/05/17 00:21:09;;;;;;;6.90;2.27;;;18.40;58.20;;;;;;4927822;29;20198;-61
2022/05/17 00:23:38;;;;;;;4.00;2.10;;;18.40;57.20;;;;;;4920465;29;20241;-61
2022/05/17 00:26:05;;;;;;;3.83;2.70;;;18.40;59.50;;;;;;4927551;29;20225;-61
2022/05/17 00:28:31;;;;;;;3.57;2.60;;;18.40;60.40;;;;;;4922182;29;20542;-62
2022/05/17 00:30:57;;;;;;;3.13;2.13;;;18.40;60.30;;;;;;4926752;29;20269;-62
2022/05/17 00:33:23;;;;;;;6.63;2.67;;;18.40;61.60;;;;;;4922464;29;20207;-63
2022/05/17 00:35:49;;;;;;;2.83;1.93;;;18.40;62.70;;;;;;4926189;29;20277;-74
2022/05/17 00:38:15;;;;;;;5.63;2.30;;;18.30;61.70;;;;;;4923189;29;20209;-72
2022/05/17 00:40:41;;;;;;;4.37;2.37;;;18.30;63.80;;;;;;4925946;29;20206;-73
2022/05/17 00:43:13;;;;;;;7.13;2.60;;;18.30;64.50;;;;;;4925198;29;20237;-70
2022/05/17 00:45:46;;;;;;;5.57;2.33;;;18.30;62.10;;;;;;4912973;29;20673;-74
2022/05/17 00:48:13;;;;;;;6.10;2.50;;;18.30;61.80;;;;;;4922607;29;20759;-69
2022/05/17 00:50:41;;;;;;;4.10;2.23;;;18.20;60.80;;;;;;4927550;29;20314;-71
2022/05/17 00:53:17;;;;;;;3.87;2.60;;;18.20;60.30;;;;;;4926272;29;20222;-75
2022/05/17 00:55:53;;;;;;;2.63;2.27;;;18.20;60.20;;;;;;4925190;29;20256;-72
2022/05/17 00:58:27;;;;;;;2.60;2.27;;;18.10;61.20;;;;;;4926017;29;20210;-80
2022/05/17 01:01:02;;;;;;;2.50;2.30;;;18.20;63.60;;;;;;4920451;29;20284;-61
2022/05/17 01:03:34;;;;;;;3.80;2.30;;;18.20;64.80;;;;;;4922920;29;20211;-61
2022/05/17 01:06:02;;;;;;;4.33;2.63;;;18.20;61.60;;;;;;4919623;29;20207;-61
2022/05/17 01:08:29;;;;;;;5.27;2.87;;;18.20;63.70;;;;;;4925791;29;20633;-61
2022/05/17 01:10:54;;;;;;;6.33;2.77;;;18.20;64.10;;;;;;4926969;29;20221;-61
2022/05/17 01:16:06;;;;;;;2.87;2.30;;;18.10;65.10;;;;;;4924221;29;20207;-55
2022/05/17 01:18:38;;;;;;;5.17;2.53;;;18.10;65.60;;;;;;4924500;29;21099;-59
2022/05/17 01:21:04;;;;;;;4.23;2.60;;;18.10;65.40;;;;;;4925846;29;20205;-57
2022/05/17 01:23:30;;;;;;;4.27;2.30;;;18.10;63.60;;;;;;4923869;29;20210;-57
2022/05/17 01:25:57;;;;;;;5.30;2.83;;;18.00;62.90;;;;;;4924960;29;20210;-57
2022/05/17 01:28:26;;;;;;;3.20;1.97;;;18.00;65.70;;;;;;4922582;29;20204;-57
2022/05/17 01:30:52;;;;;;;7.77;2.37;;;17.90;64.90;;;;;;4923668;29;20208;-56
2022/05/17 01:33:19;;;;;;;6.20;2.60;;;17.90;67.70;;;;;;4922139;29;20212;-57
2022/05/17 01:35:45;;;;;;;5.80;2.63;;;17.90;67.90;;;;;;4925940;29;20234;-56
2022/05/17 01:38:12;;;;;;;4.93;2.30;;;17.80;66.90;;;;;;4925039;29;20202;-57
2022/05/17 01:40:39;;;;;;;4.10;2.77;;;17.90;67.20;;;;;;4928700;29;20673;-57
2022/05/17 01:43:05;;;;;;;2.73;2.50;;;17.80;66.40;;;;;;4928228;29;20540;-57
2022/05/17 01:45:31;;;;;;;3.80;2.43;;;17.80;68.20;;;;;;4929898;29;20206;-58
2022/05/17 01:47:56;;;;;;;4.70;3.10;;;17.70;68.50;;;;;;4928199;29;20212;-58
2022/05/17 01:50:22;;;;;;;4.57;2.80;;;17.60;71.60;;;;;;4930003;29;20214;-58
2022/05/17 01:52:48;;;;;;;7.77;2.87;;;17.60;75.30;;;;;;4927970;29;20213;-57
2022/05/17 01:55:14;;;;;;;6.60;3.47;;;17.60;80.50;;;;;;4930233;29;20249;-57
2022/05/17 01:57:40;;;;;;;6.93;3.70;;;17.50;84.50;;;;;;4927101;29;20521;-57
2022/05/17 02:00:09;;;;;;;4.30;3.47;;;17.50;93.30;;;;;;4929257;29;20277;-57
2022/05/17 02:02:34;;;;;;;4.30;2.73;;;17.30;94.70;;;;;;4927848;29;20714;-58
2022/05/17 02:04:59;;;;;;;3.37;2.77;;;17.10;98.00;;;;;;4927666;29;20194;-58
2022/05/17 02:07:25;;;;;;;6.87;3.67;;;17.00;99.90;;;;;;4927985;29;20265;-58
2022/05/17 02:09:50;;;;;;;7.63;3.10;;;17.00;99.90;;;;;;4929749;29;20217;-58
2022/05/17 02:12:17;;;;;;;4.43;3.37;;;16.90;99.90;;;;;;4927805;29;20408;-58
2022/05/17 02:14:43;;;;;;;4.97;3.23;;;16.80;99.90;;;;;;4929956;29;20751;-58
2022/05/17 02:17:09;;;;;;;5.87;3.10;;;16.70;99.90;;;;;;4928150;29;20237;-58
2022/05/17 02:19:35;;;;;;;4.00;3.50;;;16.60;99.90;;;;;;4929946;29;20201;-58
2022/05/17 02:22:00;;;;;;;5.87;3.83;;;16.50;99.90;;;;;;4928183;29;20318;-58
2022/05/17 02:24:27;;;;;;;5.90;3.50;;;16.50;99.90;;;;;;4927318;29;20213;-58
2022/05/17 02:26:54;;;;;;;5.67;3.27;;;16.40;99.90;;;;;;4928374;29;20700;-58
2022/05/17 02:29:20;;;;;;;7.67;4.10;;;16.30;99.90;;;;;;4928390;29;20935;-58
2022/05/17 02:31:45;;;;;;;6.50;3.30;;;16.20;99.90;;;;;;4928082;29;20214;-59
2022/05/17 02:34:10;;;;;;;8.90;3.20;;;16.10;99.90;;;;;;4930434;29;20269;-59
2022/05/17 02:36:36;;;;;;;4.17;3.30;;;16.10;99.90;;;;;;4930277;29;20231;-57
2022/05/17 02:39:02;;;;;;;4.87;3.27;;;16.10;99.90;;;;;;4927625;29;20201;-57
2022/05/17 02:41:27;;;;;;;4.30;3.40;;;16.10;99.90;;;;;;4930013;29;20215;-56
2022/05/17 02:43:53;;;;;;;4.70;2.97;;;16.20;99.90;;;;;;4927752;29;20198;-58
2022/05/17 02:46:19;;;;;;;5.17;3.03;;;16.20;99.90;;;;;;4929732;29;20280;-56
2022/05/17 02:48:44;;;;;;;10.27;4.97;;;16.20;99.90;;;;;;4927942;29;20213;-58
2022/05/17 02:51:12;;;;;;;6.23;3.57;;;16.20;99.90;;;;;;4929158;29;20188;-56
2022/05/17 02:53:37;;;;;;;4.47;2.67;;;16.10;99.90;;;;;;4928438;29;20211;-55
2022/05/17 02:56:04;;;;;;;6.37;3.53;;;16.10;99.90;;;;;;4929948;29;20244;-55
2022/05/17 02:58:29;;;;;;;7.43;3.70;;;16.00;99.90;;;;;;4923493;29;20204;-63
2022/05/17 03:00:54;;;;;;;5.20;3.57;;;16.00;99.90;;;;;;4928820;29;20203;-63
2022/05/17 03:03:20;;;;;;;6.40;3.60;;;16.00;99.90;;;;;;4927810;29;20745;-63
2022/05/17 03:05:46;;;;;;;6.87;3.60;;;16.00;99.90;;;;;;4929362;29;20387;-64
2022/05/17 03:08:11;;;;;;;8.37;4.10;;;16.00;99.90;;;;;;4928429;29;20203;-64
2022/05/17 03:10:36;;;;;;;5.53;4.17;;;16.00;99.90;;;;;;4930166;29;20313;-65
2022/05/17 03:13:02;;;;;;;6.20;3.73;;;16.00;99.90;;;;;;4927787;29;20211;-63
2022/05/17 03:15:27;;;;;;;6.50;4.53;;;16.00;99.90;;;;;;4929769;29;20519;-64
2022/05/17 03:17:53;;;;;;;8.20;4.23;;;16.00;99.90;;;;;;4927313;29;20266;-65
2022/05/17 03:20:19;;;;;;;10.10;4.10;;;16.00;99.90;;;;;;4929600;29;20201;-64
2022/05/17 03:22:44;;;;;;;8.67;3.93;;;16.00;99.90;;;;;;4927761;29;20317;-63
2022/05/17 03:25:10;;;;;;;7.33;4.17;;;15.90;99.90;;;;;;4929867;29;20204;-62
2022/05/17 03:27:36;;;;;;;6.63;3.93;;;15.90;99.90;;;;;;4927579;29;20220;-64
2022/05/17 03:30:01;;;;;;;8.80;3.97;;;15.90;99.90;;;;;;4929159;29;20274;-64
2022/05/17 03:32:27;;;;;;;6.17;3.77;;;15.80;99.90;;;;;;4927482;29;20250;-64
2022/05/17 03:34:52;;;;;;;6.57;3.63;;;15.70;99.90;;;;;;4929374;29;20638;-62
2022/05/17 03:37:18;;;;;;;6.87;3.90;;;15.60;99.90;;;;;;4924639;29;20207;-64
2022/05/17 03:39:43;;;;;;;9.23;3.80;;;15.60;99.90;;;;;;4929359;29;20184;-63
2022/05/17 03:42:09;;;;;;;6.87;4.20;;;15.50;99.90;;;;;;4927068;29;20693;-63
2022/05/17 03:44:38;;;;;;;10.13;4.47;;;15.40;99.90;;;;;;4929064;29;20205;-63
2022/05/17 03:47:06;;;;;;;6.23;4.03;;;15.10;99.90;;;;;;4927117;29;21047;-62
2022/05/17 03:49:32;;;;;;;5.07;4.27;;;14.80;99.90;;;;;;4929190;29;20215;-63
2022/05/17 03:51:57;;;;;;;6.10;3.90;;;14.70;99.90;;;;;;4927004;29;20227;-63
2022/05/17 03:54:23;;;;;;;6.43;3.63;;;14.60;99.90;;;;;;4929252;29;20210;-63
2022/05/17 03:56:49;;;;;;;8.10;4.33;;;14.40;99.90;;;;;;4926806;29;20677;-63
2022/05/17 03:59:15;;;;;;;5.10;4.30;;;14.20;99.90;;;;;;4928879;29;20179;-63
2022/05/17 04:01:40;;;;;;;3.80;3.10;;;14.10;99.90;;;;;;4916951;29;20646;-63
2022/05/17 04:04:06;;;;;;;5.27;3.43;;;14.00;99.90;;;;;;4926749;29;20207;-63
2022/05/17 04:06:31;;;;;;;6.40;4.37;;;14.00;99.90;;;;;;4928482;29;20214;-63
2022/05/17 04:08:57;;;;;;;3.60;3.30;;;14.00;99.90;;;;;;4926525;29;20207;-63
2022/05/17 04:11:22;;;;;;;5.03;3.77;;;13.90;99.90;;;;;;4928517;29;20393;-63
2022/05/17 04:13:48;;;;;;;5.70;3.47;;;13.90;99.90;;;;;;4926336;29;20203;-63
2022/05/17 04:16:13;;;;;;;11.00;5.03;;;13.80;99.90;;;;;;4927634;29;20199;-63
2022/05/17 04:18:39;;;;;;;7.13;4.00;;;13.90;99.90;;;;;;4926507;29;20286;-63
2022/05/17 04:21:08;;;;;;;5.50;3.50;;;13.90;99.90;;;;;;4927868;29;20647;-62
2022/05/17 04:23:33;;;;;;;8.00;4.60;;;13.90;99.90;;;;;;4926308;29;20213;-64
2022/05/17 04:25:59;;;;;;;4.70;3.67;;;13.90;99.90;;;;;;4927857;29;20194;-64
2022/05/17 04:28:25;;;;;;;4.83;3.77;;;14.00;99.90;;;;;;4926645;29;20210;-64
2022/05/17 04:30:51;;;;;;;8.90;4.23;;;14.10;99.90;;;;;;4927971;29;20225;-64
2022/05/17 04:33:17;;;;;;;6.57;4.03;;;14.20;99.90;;;;;;4919819;29;20306;-64
2022/05/17 04:35:42;;;;;;;6.27;3.97;;;14.20;99.90;;;;;;4927367;29;20317;-64
2022/05/17 04:38:08;;;;;;;8.90;4.37;;;14.30;99.90;;;;;;4926298;29;20207;-63
2022/05/17 04:40:35;;;;;;;5.03;4.30;;;14.40;99.90;;;;;;4928412;29;20197;-64
2022/05/17 04:43:01;;;;;;;9.47;4.30;;;14.40;99.90;;;;;;4925980;29;20207;-64
2022/05/17 04:45:27;;;;;;;5.40;4.87;;;14.40;99.90;;;;;;4927842;29;20194;-64
2022/05/17 04:47:53;;;;;;;6.93;4.00;;;14.40;99.90;;;;;;4926096;29;20211;-64
2022/05/17 04:50:19;;;;;;;3.50;3.20;;;14.40;99.90;;;;;;4927508;29;20218;-64
2022/05/17 04:52:47;;;;;;;5.70;3.60;;;14.40;99.90;;;;;;4925785;29;20208;-64
2022/05/17 04:55:14;;;;;;;5.17;4.13;;;14.50;99.90;;;;;;4923554;29;20190;-64
2022/05/17 04:57:39;;;;;;;4.03;3.47;;;14.50;99.90;;;;;;4925476;29;20202;-64
2022/05/17 05:00:08;;;;;;;7.90;3.50;;;14.50;99.90;;;;;;4909603;29;20660;-64
2022/05/17 05:02:33;;;;;;;5.43;3.70;;;14.50;99.90;;;;;;4925576;29;20212;-64
2022/05/17 05:04:59;;;;;;;6.93;4.17;;;14.50;99.90;;;;;;4927431;29;20214;-65
2022/05/17 05:07:24;;;;;;;6.27;4.13;;;14.50;99.90;;;;;;4925634;29;20265;-64
2022/05/17 05:09:50;;;;;;;7.23;4.50;;;14.50;99.90;;;;;;4927564;29;20842;-65
2022/05/17 05:12:15;;;;;;;7.13;4.17;;;14.50;99.90;;;;;;4914598;29;20634;-63
2022/05/17 05:14:41;;;;;;;5.23;3.73;;;14.50;99.90;;;;;;4929458;29;20187;-64
2022/05/17 05:17:09;;;;;;;5.97;3.90;;;14.50;99.90;;;;;;4923104;29;20229;-65
2022/05/17 05:19:36;;;;;;;6.80;4.53;;;14.50;99.90;;;;;;4934204;29;20642;-63
2022/05/17 05:22:01;;;;;;;7.37;4.27;;;14.60;99.90;;;;;;4931722;29;20241;-64
2022/05/17 05:24:27;;;;;;;10.63;6.97;;;14.60;99.90;;;;;;4933863;29;20226;-63
2022/05/17 05:26:53;;;;;;;8.90;4.67;;;14.60;99.90;;;;;;4931799;29;20248;-64
2022/05/17 05:29:18;;;;;;;7.80;4.83;;;14.60;99.90;;;;;;4933955;29;20207;-65
2022/05/17 05:31:44;;;;;;;5.43;4.20;;;14.70;99.90;;;;;;4933560;29;20638;-64
2022/05/17 05:34:10;;;;;;;5.73;5.00;;;14.70;99.90;;;;;;4933143;29;20210;-65
2022/05/17 05:36:36;;;;;;;9.23;4.73;;;14.70;99.90;;;;;;4933344;29;20698;-64
2022/05/17 05:39:02;;;;;;;5.97;4.40;;;14.70;99.90;;;;;;4931749;29;20213;-65
2022/05/17 05:41:28;;;;;;;6.33;4.17;;;14.60;99.90;;;;;;4932295;29;20565;-65
2022/05/17 05:43:54;;;;;;;4.80;4.40;;;14.50;99.90;;;;;;4931855;29;20660;-64
2022/05/17 05:46:19;;;;;;;7.87;4.63;;;14.50;99.90;;;;;;4933562;29;20282;-63
2022/05/17 05:48:45;;;;;;;7.17;4.60;;;14.50;99.90;;;;;;4931985;29;20202;-63
2022/05/17 05:51:11;;;;;;;9.40;4.97;;;14.50;99.90;;;;;;4933611;29;20237;-63
2022/05/17 05:53:37;;;;;;;7.90;6.07;;;14.50;99.90;;;;;;4932036;29;20671;-63
2022/05/17 05:56:03;;;;;;;5.53;4.80;;;14.50;99.90;;;;;;4933032;29;20203;-64
2022/05/17 05:58:46;;;;;;;8.27;4.87;;;14.60;99.90;;;;;;4931571;29;20286;-63
2022/05/17 06:01:12;;;;;;;5.90;3.97;;;14.70;99.90;;;;;;4926436;29;20198;-63
2022/05/17 06:03:38;;;;;;;9.17;6.03;;;14.70;99.90;;;;;;4931883;29;20215;-63
2022/05/17 06:06:08;;;;;;;4.80;4.30;;;14.80;99.90;;;;;;4933338;29;20195;-63
2022/05/17 06:08:34;;;;;;;7.43;5.20;;;14.80;99.90;;;;;;4931422;29;20215;-62
2022/05/17 06:11:01;;;;;;;8.13;5.47;;;14.90;99.90;;;;;;4932924;29;20553;-63
2022/05/17 06:13:27;;;;;;;5.63;4.27;;;14.90;99.90;;;;;;4931709;29;20631;-63
2022/05/17 06:15:53;;;;;;;8.23;4.97;;;14.90;99.90;;;;;;4933249;29;20202;-64
2022/05/17 06:18:20;;;;;;;7.77;4.17;;;14.90;99.90;;;;;;4931397;29;20205;-62
2022/05/17 06:20:50;;;;;;;4.67;4.13;;;14.90;99.90;;;;;;4933523;29;20205;-62
2022/05/17 06:23:16;;;;;;;5.13;4.70;;;14.90;99.90;;;;;;4931876;29;20202;-62
2022/05/17 06:25:41;;;;;;;9.37;4.97;;;14.90;99.90;;;;;;4927080;29;20199;-62
2022/05/17 06:28:07;;;;;;;5.50;4.43;;;15.00;99.90;;;;;;4928074;29;20285;-62
2022/05/17 06:30:33;;;;;;;6.43;4.60;;;15.00;99.90;;;;;;4929099;29;20322;-63
2022/05/17 06:33:00;;;;;;;7.47;4.87;;;15.00;99.90;;;;;;4928101;29;20923;-62
2022/05/17 06:35:26;;;;;;;10.60;5.77;;;15.00;99.90;;;;;;4930120;29;20219;-62
2022/05/17 06:37:52;;;;;;;7.17;4.93;;;15.10;99.90;;;;;;4928112;29;20682;-63
2022/05/17 06:40:18;;;;;;;6.40;5.43;;;15.10;99.90;;;;;;4930392;29;20204;-63
2022/05/17 06:42:44;;;;;;;7.50;5.13;;;15.20;99.90;;;;;;4928511;29;20626;-63
2022/05/17 06:45:11;;;;;;;9.03;5.60;;;15.30;99.90;;;;;;4929842;29;20193;-63
2022/05/17 06:47:37;;;;;;;7.30;5.33;;;15.30;99.90;;;;;;4928328;29;20558;-64
2022/05/17 06:50:03;;;;;;;7.67;5.00;;;15.40;99.90;;;;;;4929614;29;20218;-64
2022/05/17 06:52:28;;;;;;;6.10;4.47;;;15.40;99.90;;;;;;4928226;29;20343;-64
2022/05/17 06:54:55;;;;;;;6.87;5.30;;;15.50;99.90;;;;;;4930112;29;20723;-64
2022/05/17 06:57:21;;;;;;;5.83;5.23;;;15.60;99.90;;;;;;4928197;29;20225;-62
2022/05/17 06:59:46;;;;;;;9.30;5.50;;;15.70;99.90;;;;;;4929795;29;20575;-63
2022/05/17 07:02:12;;;;;;;5.93;5.33;;;15.80;99.90;;;;;;4927890;29;20203;-64
2022/05/17 07:04:38;;;;;;;6.63;5.77;;;16.00;99.90;;;;;;4929840;29;20295;-62
2022/05/17 07:07:05;;;;;;;6.70;5.87;;;16.10;99.90;;;;;;4915343;29;20209;-62
2022/05/17 07:09:32;;;;;;;10.27;6.13;;;16.30;99.90;;;;;;4930131;29;20211;-62
2022/05/17 07:14:42;;;;;;;6.93;5.70;;;16.60;99.90;;;;;;4930071;29;20246;-63
2022/05/17 07:17:16;;;;;;;6.07;5.30;;;16.80;99.90;;;;;;4927670;29;20213;-63
2022/05/17 07:19:42;;;;;;;8.63;5.27;;;17.00;99.90;;;;;;4929719;29;21123;-63
2022/05/17 07:22:08;;;;;;;10.30;5.73;;;17.10;99.90;;;;;;4927584;29;20238;-62
2022/05/17 07:24:34;;;;;;;8.60;6.00;;;17.30;99.90;;;;;;4928299;29;20248;-63
2022/05/17 07:27:01;;;;;;;9.73;5.17;;;17.40;99.90;;;;;;4928301;29;20214;-64
2022/05/17 07:29:27;;;;;;;7.97;5.87;;;17.40;99.90;;;;;;4915268;29;20233;-63
2022/05/17 07:31:53;;;;;;;6.80;5.17;;;17.20;99.90;;;;;;4929702;29;20207;-63
2022/05/17 07:34:19;;;;;;;8.63;5.57;;;17.00;99.90;;;;;;4927772;29;20205;-64
2022/05/17 07:36:45;;;;;;;6.93;5.70;;;16.80;99.90;;;;;;4929507;29;20230;-63
2022/05/17 07:39:11;;;;;;;7.83;4.67;;;16.70;99.90;;;;;;4927433;29;20779;-63
2022/05/17 07:41:36;;;;;;;9.77;5.43;;;16.40;99.90;;;;;;4929954;29;20268;-62
2022/05/17 07:44:03;;;;;;;8.20;5.97;;;16.40;99.90;;;;;;4929108;29;20247;-62
2022/05/17 07:46:29;;;;;;;6.50;5.63;;;16.40;99.90;;;;;;4925892;29;20206;-63
2022/05/17 07:48:55;;;;;;;9.87;5.93;;;16.40;99.90;;;;;;4929515;29;20241;-64
2022/05/17 07:51:20;;;;;;;6.37;5.73;;;16.30;99.90;;;;;;4927305;29;20230;-64
2022/05/17 07:53:46;;;;;;;9.13;6.23;;;16.20;99.90;;;;;;4929056;29;20704;-62
2022/05/17 07:56:13;;;;;;;7.93;6.67;;;16.10;99.90;;;;;;4927376;29;20202;-62
2022/05/17 07:58:38;;;;;;;9.13;7.67;;;16.10;99.90;;;;;;4928735;29;20352;-62
2022/05/17 08:01:04;;;;;;;7.93;7.10;;;16.40;99.90;;;;;;4926857;29;20735;-63
2022/05/17 08:03:30;;;;;;;8.30;6.30;;;16.70;99.90;;;;;;4915552;29;20205;-63
2022/05/17 08:05:56;;;;;;;11.03;6.63;;;16.90;99.90;;;;;;4926603;29;20282;-62
2022/05/17 08:08:21;;;;;;;10.07;7.30;;;17.00;99.90;;;;;;4928710;29;21145;-62
2022/05/17 08:10:47;;;;;;;11.20;6.87;;;17.20;99.90;;;;;;4926877;29;20249;-63
2022/05/17 08:13:14;;;;;;;7.43;6.60;;;17.40;99.90;;;;;;4928944;29;20959;-62
2022/05/17 08:15:40;;;;;;;8.83;7.07;;;17.70;99.90;;;;;;4927065;29;20204;-62
2022/05/17 08:18:06;;;;;;;9.63;7.80;;;17.80;99.90;;;;;;4928176;29;20568;-62
2022/05/17 08:20:33;;;;;;;8.03;7.33;;;17.90;99.90;;;;;;4926751;29;20305;-62
2022/05/17 08:22:58;;;;;;;7.90;6.40;;;18.00;99.90;;;;;;4928557;29;20227;-62
2022/05/17 08:28:09;;;;;;;8.87;6.50;;;18.30;99.90;;;;;;4928881;29;20802;-63
2022/05/17 08:30:35;;;;;;;7.47;6.07;;;18.20;99.90;;;;;;4926455;29;20225;-63
2022/05/17 08:33:17;;;;;;;9.30;6.53;;;18.40;99.90;;;;;;4928431;29;20198;-63
2022/05/17 08:36:04;;;;;;;11.43;6.73;;;18.40;99.90;;;;;;4925894;29;20230;-63
2022/05/17 08:38:39;;;;;;;6.80;6.10;;;18.00;99.90;;;;;;4923866;29;20210;-63
2022/05/17 08:41:11;;;;;;;7.43;6.40;;;17.70;99.90;;;;;;4925151;29;20963;-62
2022/05/17 08:43:51;;;;;;;7.80;6.37;;;17.50;99.90;;;;;;4915578;29;20253;-63
2022/05/17 08:46:28;;;;;;;7.80;6.93;;;17.80;99.90;;;;;;4920287;29;20314;-63
2022/05/17 08:49:19;;;;;;;9.67;6.57;;;18.10;99.90;;;;;;4916969;29;20245;-63
2022/05/17 08:52:18;;;;;;;9.20;7.03;;;18.20;99.90;;;;;;4926139;29;20304;-63
2022/05/17 08:55:03;;;;;;;7.23;5.80;;;18.40;99.90;;;;;;4910889;29;20195;-64
2022/05/17 08:58:13;;;;;;;10.43;6.70;;;18.80;99.90;;;;;;4927672;29;20190;-62
2022/05/17 09:00:48;;;;;;;6.63;6.03;;;18.90;99.90;;;;;;4904861;29;21116;-62
2022/05/17 09:03:31;;;;;;;6.37;5.70;;;18.90;99.90;;;;;;4927373;29;20256;-63
2022/05/17 09:06:10;;;;;;;8.27;5.30;;;18.60;99.90;;;;;;4923556;29;20299;-63
2022/05/17 09:08:42;;;;;;;11.00;7.10;;;18.60;99.90;;;;;;4927999;29;20233;-63
2022/05/17 09:11:17;;;;;;;6.23;5.63;;;18.80;99.90;;;;;;4925516;29;20233;-64
2022/05/17 09:14:06;;;;;;;7.67;5.50;;;19.00;99.90;;;;;;4919204;29;20238;-63
2022/05/17 09:16:36;;;;;;;8.20;5.80;;;19.30;99.90;;;;;;4925585;29;20334;-63
2022/05/17 09:19:02;;;;;;;9.23;6.53;;;19.50;99.90;;;;;;4927533;29;20678;-64
2022/05/17 09:21:32;;;;;;;9.90;5.40;;;19.80;99.90;;;;;;4925845;29;20214;-64
2022/05/17 09:24:07;;;;;;;7.67;5.67;;;19.70;99.90;;;;;;4921716;29;20203;-64
2022/05/17 09:26:34;;;;;;;10.33;6.50;;;19.80;99.90;;;;;;4924458;29;20269;-63
2022/05/17 09:29:08;;;;;;;8.75;5.38;;;19.90;99.90;;;;;;4927071;29;20650;-71
2022/05/17 09:31:36;;;;;;;12.15;6.38;;;20.20;99.90;;;;;;4921915;29;20853;-63
2022/05/17 09:34:08;;;;;;;10.50;6.07;;;20.00;99.90;;;;;;4928082;29;20195;-63
2022/05/17 09:36:52;;;;;;;9.30;4.88;;;20.10;99.90;;;;;;4921631;29;20233;-64
2022/05/17 09:39:23;;;;;;;7.68;4.80;;;20.20;99.90;;;;;;4925994;29;20626;-63
2022/05/17 09:41:50;;;;;;;5.00;4.50;;;20.40;99.90;;;;;;4925208;29;20207;-64
2022/05/17 09:44:22;;;;;;;5.88;4.68;;;20.60;99.90;;;;;;4927239;29;20226;-64
2022/05/17 09:46:50;;;;;;;6.05;5.45;;;20.60;99.90;;;;;;4923095;29;20212;-64
2022/05/17 09:52:34;;;;;;;5.32;4.57;;;20.90;99.90;;;;;;4925702;29;20234;-63
2022/05/17 09:55:09;;;;;;;5.32;4.65;;;21.00;99.90;;;;;;4908329;29;20213;-63
2022/05/17 09:57:36;;;;;;;6.85;5.00;;;21.10;99.90;;;;;;4927168;29;20676;-65
2022/05/17 10:00:08;;;;;;;6.25;5.47;;;21.20;99.90;;;;;;4924671;29;20250;-64
2022/05/17 10:02:42;;;;;;;5.88;5.07;;;21.00;99.90;;;;;;4928986;29;20187;-62
2022/05/17 10:05:36;;;;;;;6.20;4.85;;;21.10;99.90;;;;;;4921863;29;20206;-61
2022/05/17 10:08:12;;;;;;;6.53;5.20;;;21.00;99.90;;;;;;4930109;29;20187;-61
2022/05/17 10:10:43;;;;;;;7.53;5.30;;;20.90;99.90;;;;;;4928774;29;20229;-60
2022/05/17 10:13:24;;;;;;;9.10;5.23;;;20.80;99.90;;;;;;4930096;29;20274;-62
2022/05/17 10:16:13;;;;;;;6.30;4.90;;;20.90;99.90;;;;;;4918724;29;20291;-64
2022/05/17 10:18:45;;;;;;;7.88;5.15;;;21.10;99.90;;;;;;4930808;29;20229;-60
2022/05/17 10:21:48;;;;;;;9.02;4.97;;;21.10;99.90;;;;;;4921364;29;20702;-60
2022/05/17 10:24:43;;;;;;;10.02;5.53;;;21.10;99.90;;;;;;4930107;29;20230;-60
2022/05/17 10:27:38;;;;;;;5.15;4.50;;;20.80;99.90;;;;;;4921144;29;20761;-61
2022/05/17 10:30:38;;;;;;;8.38;6.00;;;20.90;99.90;;;;;;4924689;29;20219;-63
2022/05/17 10:33:15;;;;;;;4.70;4.30;;;21.00;99.90;;;;;;4906481;29;20203;-62
2022/05/17 10:35:52;;;;;;;4.78;4.38;;;20.90;99.90;;;;;;4927844;29;20281;-61
2022/05/17 10:38:25;;;;;;;5.85;4.57;;;20.90;99.90;;;;;;4929843;29;20784;-60
2022/05/17 10:40:53;;;;;;;6.90;4.22;;;21.10;99.90;;;;;;4926817;29;20666;-61
2022/05/17 10:43:30;;;;;;;5.47;4.25;;;21.10;99.90;;;;;;4929591;29;20191;-60
2022/05/17 10:46:15;;;;;;;6.03;4.38;;;20.90;99.90;;;;;;4928370;29;20210;-60
2022/05/17 10:49:09;;;;;;;8.27;5.20;;;20.60;99.90;;;;;;4929119;29;20237;-59
2022/05/17 10:52:20;;;;;;;9.70;4.28;;;20.60;99.90;;;;;;4925965;29;20647;-76
2022/05/17 10:54:48;;;;;;;7.45;3.88;;;20.80;99.90;;;;;;4873397;29;20211;-59
2022/05/17 10:57:25;;;;;;;10.13;7.10;;;21.10;99.90;;;;;;4861678;29;20645;-61
2022/05/17 11:00:14;;;;;;;7.55;4.68;;;21.30;99.90;;;;;;4901895;29;20254;-61
2022/05/17 11:03:12;;;;;;;5.13;4.65;;;21.40;99.90;;;;;;4929122;29;20189;-62
2022/05/17 11:05:56;;;;;;;4.50;3.42;;;21.60;99.90;;;;;;4927722;29;20222;-62
2022/05/17 11:08:37;;;;;;;4.80;4.22;;;21.70;99.90;;;;;;4929807;29;20231;-61
2022/05/17 11:11:40;;;;;;;5.13;4.07;;;21.70;99.90;;;;;;4927436;29;20237;-62
2022/05/17 11:14:16;;;;;;;5.18;4.20;;;21.60;99.90;;;;;;4928484;29;20190;-62
2022/05/17 11:17:02;;;;;;;6.30;4.00;;;21.10;99.90;;;;;;4924946;29;20218;-62
2022/05/17 11:19:41;;;;;;;5.63;4.05;;;21.20;99.90;;;;;;4929087;29;20225;-62
2022/05/17 11:22:15;;;;;;;6.10;3.88;;;21.30;99.90;;;;;;4920255;29;20599;-61
2022/05/17 11:24:41;;;;;;;4.60;4.03;;;21.20;99.90;;;;;;4928099;29;20293;-62
2022/05/17 11:27:22;;;;;;;4.22;3.67;;;21.30;99.90;;;;;;4927858;29;20211;-62
2022/05/17 11:30:04;;;;;;;4.72;4.32;;;21.60;99.90;;;;;;4928676;29;21041;-60
2022/05/17 11:32:33;;;;;;;4.20;3.80;;;21.50;99.90;;;;;;4923863;29;20206;-61
2022/05/17 11:35:04;;;;;;;6.32;4.15;;;21.30;99.90;;;;;;4928348;29;20241;-60
2022/05/17 11:37:32;;;;;;;4.32;3.92;;;21.50;99.90;;;;;;4927510;29;20202;-61
2022/05/17 11:40:03;;;;;;;4.75;3.95;;;21.90;99.90;;;;;;4920209;29;20200;-64
2022/05/17 11:42:32;;;;;;;6.90;4.18;;;22.20;99.90;;;;;;4925402;29;20218;-62
2022/05/17 11:45:16;;;;;;;4.75;4.32;;;22.60;99.90;;;;;;4928482;29;20252;-61
2022/05/17 11:47:42;;;;;;;6.25;4.22;;;23.20;99.10;;;;;;4926163;29;20272;-61
2022/05/17 11:50:11;;;;;;;8.43;4.70;;;23.40;99.70;;;;;;4928992;29;20219;-61
2022/05/17 11:52:37;;;;;;;5.68;4.47;;;23.20;98.80;;;;;;4926701;29;20637;-62
2022/05/17 11:55:04;;;;;;;4.47;3.95;;;23.60;98.50;;;;;;4928777;29;20777;-62
2022/05/17 11:57:30;;;;;;;6.03;4.20;;;23.60;98.50;;;;;;4926975;29;20199;-62
2022/05/17 12:00:04;;;;;;;4.43;3.97;;;23.90;98.40;;;;;;4928760;29;20522;-59
2022/05/17 12:02:48;;;;;;;4.10;3.70;;;24.20;97.40;;;;;;4925664;29;20206;-62
2022/05/17 12:05:47;;;;;;;5.30;4.15;;;24.20;97.40;;;;;;4928007;29;20195;-62
2022/05/17 12:08:35;;;;;;;5.38;4.10;;;24.20;96.90;;;;;;4912670;29;20242;-63
2022/05/17 12:11:30;;;;;;;4.45;3.60;;;24.30;97.70;;;;;;4926313;29;20225;-62
2022/05/17 12:14:39;;;;;;;7.45;3.85;;;24.60;97.70;;;;;;4928535;29;20177;-62
2022/05/17 12:17:15;;;;;;;5.13;3.80;;;24.70;95.60;;;;;;4856606;29;20197;-60
2022/05/17 12:20:06;;;;;;;3.58;3.30;;;24.20;93.80;;;;;;4919136;29;20609;-60
2022/05/17 12:22:41;;;;;;;4.35;3.45;;;24.40;93.60;;;;;;4925169;29;20560;-61
2022/05/17 12:25:40;;;;;;;6.88;4.18;;;24.20;93.70;;;;;;4926703;29;20179;-72
2022/05/17 12:28:11;;;;;;;5.40;3.85;;;23.40;94.70;;;;;;4925601;29;20193;-65
2022/05/17 12:31:00;;;;;;;5.07;3.72;;;23.70;93.60;;;;;;4925792;29;20222;-65
2022/05/17 12:33:32;;;;;;;5.00;3.38;;;23.30;93.90;;;;;;4928138;29;20179;-65
2022/05/17 12:36:16;;;;;;;7.88;3.60;;;23.30;94.00;;;;;;4925574;29;20214;-65
2022/05/17 12:44:23;;;;;;;4.80;3.40;;;24.60;93.00;;;;;;4925164;29;20575;-65
2022/05/17 12:46:52;;;;;;;4.22;3.47;;;25.20;91.10;;;;;;4923828;29;20203;-63
2022/05/17 12:49:22;;;;;;;4.30;3.22;;;25.20;90.00;;;;;;4926802;29;20207;-63
2022/05/17 12:51:58;;;;;;;4.82;3.33;;;25.10;88.00;;;;;;4928194;29;20207;-63
2022/05/17 12:54:28;;;;;;;8.30;4.05;;;25.30;88.20;;;;;;4917981;29;20198;-63
2022/05/17 12:56:53;;;;;;;4.07;3.60;;;25.00;86.70;;;;;;4927206;29;20273;-63
2022/05/17 12:59:28;;;;;;;4.35;3.75;;;24.50;86.40;;;;;;4924889;29;20281;-63
2022/05/17 13:01:57;;;;;;;5.70;3.30;;;24.10;85.50;;;;;;4925360;29;20218;-63
2022/05/17 13:04:31;;;;;;;4.65;3.70;;;24.00;87.60;;;;;;4925534;29;20378;-64
2022/05/17 13:07:23;;;;;;;6.05;4.22;;;23.90;86.60;;;;;;4916971;29;20208;-64
2022/05/17 13:09:56;;;;;;;3.58;3.28;;;23.80;87.30;;;;;;4917753;29;20230;-64
2022/05/17 13:12:24;;;;;;;3.53;3.08;;;23.80;90.30;;;;;;4927604;29;20246;-64
2022/05/17 13:14:51;;;;;;;4.43;3.45;;;24.00;90.10;;;;;;4925374;29;20235;-64
2022/05/17 13:17:23;;;;;;;6.57;3.97;;;24.20;87.90;;;;;;4926772;29;20246;-64
2022/05/17 13:20:00;;;;;;;4.13;3.72;;;24.20;84.60;;;;;;4925159;29;20207;-64